Time;durP1;ratioP1;P1;durP2;ratioP2;P2;SDS_P1;SDS_P2;PMS_P1;PMS_P2;Temp;Humidity;BMP_temperature;BMP_pressure;BME280_temperature;BME280_humidity;BME280_pressure;Samples;Min_cycle;Max_cycle;Signal;HPM_P1;HPM_P2
2022/10/06 00:00:47;;;;;;;1999.90;999.90;;;12.70;99.90;;;;;;5086138;28;20040;-64
2022/10/06 00:03:13;;;;;;;1999.90;999.90;;;12.70;99.90;;;;;;5115662;27;20027;-64
2022/10/06 00:05:38;;;;;;;1999.90;999.90;;;12.60;99.90;;;;;;5117372;27;20055;-64
2022/10/06 00:08:04;;;;;;;1999.90;999.90;;;12.60;99.90;;;;;;5113211;27;20040;-64
2022/10/06 00:10:30;;;;;;;1999.90;999.90;;;12.60;99.90;;;;;;5125198;27;20050;-65
2022/10/06 00:12:56;;;;;;;1999.90;999.90;;;12.50;99.90;;;;;;5093684;28;20043;-64
2022/10/06 00:15:26;;;;;;;1999.90;999.90;;;12.60;99.90;;;;;;5097632;28;20095;-64
2022/10/06 00:17:52;;;;;;;1999.90;999.90;;;12.60;99.90;;;;;;5111456;28;20078;-65
2022/10/06 00:20:18;;;;;;;1999.90;999.90;;;12.60;99.90;;;;;;5095758;28;20069;-64
2022/10/06 00:22:46;;;;;;;1999.90;999.90;;;12.60;99.90;;;;;;5116180;27;20031;-64
2022/10/06 00:25:14;;;;;;;1999.90;999.90;;;12.60;99.90;;;;;;5111344;28;20036;-65
2022/10/06 00:27:42;;;;;;;1999.90;999.90;;;12.60;99.90;;;;;;5098167;27;20039;-64
2022/10/06 00:30:10;;;;;;;1999.90;999.90;;;12.60;99.90;;;;;;5112327;27;20688;-64
2022/10/06 00:32:37;;;;;;;1999.90;999.90;;;12.50;99.90;;;;;;5110940;28;20039;-65
2022/10/06 00:35:03;;;;;;;1999.90;999.90;;;12.60;99.90;;;;;;5111831;27;20078;-65
2022/10/06 00:37:34;;;;;;;1999.90;999.90;;;12.60;99.90;;;;;;5118820;27;20044;-64
2022/10/06 00:40:00;;;;;;;1999.90;999.90;;;12.60;99.90;;;;;;5112634;27;20442;-65
2022/10/06 00:42:31;;;;;;;1999.90;999.90;;;12.60;99.90;;;;;;5088321;28;20039;-65
2022/10/06 00:45:02;;;;;;;1999.90;999.90;;;12.50;99.90;;;;;;5084979;28;20048;-64
2022/10/06 00:47:30;;;;;;;1999.90;999.90;;;12.50;99.90;;;;;;5111784;28;20073;-64
2022/10/06 00:49:59;;;;;;;1999.90;999.90;;;12.40;99.90;;;;;;5092141;28;20504;-64
2022/10/06 00:52:28;;;;;;;1999.90;999.90;;;12.40;99.90;;;;;;5106815;28;20039;-65
2022/10/06 00:54:54;;;;;;;1999.90;999.90;;;12.40;99.90;;;;;;5110955;28;20101;-64
2022/10/06 00:57:20;;;;;;;1999.90;999.90;;;12.50;99.90;;;;;;5110597;27;20027;-64
2022/10/06 00:59:46;;;;;;;1999.90;999.90;;;12.50;99.90;;;;;;5098988;28;20040;-64
2022/10/06 01:02:14;;;;;;;1999.90;999.90;;;12.50;99.90;;;;;;5090587;28;20081;-65
2022/10/06 01:04:46;;;;;;;1999.90;999.90;;;12.60;99.90;;;;;;5087422;28;20096;-65
2022/10/06 01:07:12;;;;;;;1999.90;999.90;;;12.50;99.90;;;;;;5110209;28;20429;-64
2022/10/06 01:09:39;;;;;;;1999.90;999.90;;;12.50;99.90;;;;;;5079475;28;20114;-65
2022/10/06 01:12:07;;;;;;;1999.90;999.90;;;12.50;99.90;;;;;;5100684;28;20108;-64
2022/10/06 01:14:35;;;;;;;1999.90;999.90;;;12.50;99.90;;;;;;5103918;28;20403;-64
2022/10/06 01:17:23;;;;;;;1999.90;999.90;;;12.40;99.90;;;;;;5091810;28;20051;-65
2022/10/06 01:19:58;;;;;;;1999.90;999.90;;;12.40;99.90;;;;;;5103101;28;20055;-65
2022/10/06 01:22:30;;;;;;;1999.90;999.90;;;12.40;99.90;;;;;;5112156;27;20054;-65
2022/10/06 01:24:56;;;;;;;1999.90;999.90;;;12.30;99.90;;;;;;5110860;28;20043;-65
2022/10/06 01:27:24;;;;;;;1999.90;999.90;;;12.30;99.90;;;;;;5070991;28;20079;-65
2022/10/06 01:29:54;;;;;;;1999.90;999.90;;;12.40;99.90;;;;;;5109374;28;20038;-64
2022/10/06 01:32:21;;;;;;;1999.90;999.90;;;12.40;99.90;;;;;;5108307;28;20442;-64
2022/10/06 01:34:47;;;;;;;1999.90;999.90;;;12.40;99.90;;;;;;5109618;28;20063;-64
2022/10/06 01:37:12;;;;;;;1999.90;999.90;;;12.40;99.90;;;;;;5104125;28;20078;-64
2022/10/06 01:39:38;;;;;;;1999.90;999.90;;;12.40;99.90;;;;;;5109563;28;20047;-64
2022/10/06 01:42:04;;;;;;;1999.90;999.90;;;12.30;99.90;;;;;;5109901;28;20465;-64
2022/10/06 01:44:29;;;;;;;1999.90;999.90;;;12.30;99.90;;;;;;5101457;28;20093;-64
2022/10/06 01:46:55;;;;;;;1999.90;999.90;;;12.30;99.90;;;;;;5093554;28;20396;-64
2022/10/06 01:49:20;;;;;;;1999.90;999.90;;;12.20;99.90;;;;;;5109765;28;20035;-65
2022/10/06 01:51:46;;;;;;;1999.90;999.90;;;12.30;99.90;;;;;;5104840;28;20100;-65
2022/10/06 01:54:12;;;;;;;1999.90;999.90;;;12.20;99.90;;;;;;5110330;28;20488;-65
2022/10/06 01:56:38;;;;;;;1999.90;999.90;;;12.20;99.90;;;;;;5109092;28;20040;-64
2022/10/06 01:59:04;;;;;;;1999.90;999.90;;;12.20;99.90;;;;;;5103120;28;20550;-64
2022/10/06 02:01:29;;;;;;;1999.90;999.90;;;12.20;99.90;;;;;;5102685;28;20047;-65
2022/10/06 02:03:55;;;;;;;1999.90;999.90;;;12.20;99.90;;;;;;5090940;28;20047;-64
2022/10/06 02:06:20;;;;;;;1999.90;999.90;;;12.20;99.90;;;;;;5104937;28;20059;-64
2022/10/06 02:08:46;;;;;;;1999.90;999.90;;;12.10;99.90;;;;;;5109021;28;20032;-65
2022/10/06 02:11:12;;;;;;;1999.90;999.90;;;12.10;99.90;;;;;;5109411;27;20054;-64
2022/10/06 02:13:37;;;;;;;1999.90;999.90;;;12.10;99.90;;;;;;5108967;28;20497;-64
2022/10/06 02:16:05;;;;;;;1999.90;999.90;;;12.10;99.90;;;;;;5106167;28;20047;-65
2022/10/06 02:18:32;;;;;;;1999.90;999.90;;;12.10;99.90;;;;;;5112609;27;20468;-64
2022/10/06 02:20:58;;;;;;;1999.90;999.90;;;12.20;99.90;;;;;;5072577;28;20039;-64
2022/10/06 02:23:24;;;;;;;1999.90;999.90;;;12.20;99.90;;;;;;5109746;27;20396;-65
2022/10/06 02:25:57;;;;;;;1999.90;999.90;;;12.20;99.90;;;;;;5110174;27;20035;-64
2022/10/06 02:28:23;;;;;;;1999.90;999.90;;;12.20;99.90;;;;;;5099385;28;20580;-65
2022/10/06 02:30:48;;;;;;;1999.90;999.90;;;12.20;99.90;;;;;;5092959;28;20047;-64
2022/10/06 02:33:14;;;;;;;1999.90;999.90;;;12.10;99.90;;;;;;5090985;28;20171;-64
2022/10/06 02:35:41;;;;;;;1999.90;999.90;;;12.10;99.90;;;;;;5108974;28;20042;-65
2022/10/06 02:38:07;;;;;;;1999.90;999.90;;;12.10;99.90;;;;;;5091718;27;20051;-65
2022/10/06 02:40:32;;;;;;;1999.90;999.90;;;12.10;99.90;;;;;;5108934;28;20042;-64
2022/10/06 02:42:58;;;;;;;1999.90;999.90;;;12.10;99.90;;;;;;5094867;27;20035;-64
2022/10/06 02:45:23;;;;;;;1999.90;999.90;;;12.10;99.90;;;;;;5104671;28;20043;-64
2022/10/06 02:47:49;;;;;;;1999.90;999.90;;;12.10;99.90;;;;;;5104106;28;20044;-65
2022/10/06 02:50:14;;;;;;;1999.90;999.90;;;12.20;99.90;;;;;;5090041;28;20549;-65
2022/10/06 02:52:41;;;;;;;1999.90;999.90;;;12.20;99.90;;;;;;5076592;28;20538;-64
2022/10/06 02:55:08;;;;;;;1999.90;999.90;;;12.10;99.90;;;;;;5108551;28;20043;-65
2022/10/06 02:57:33;;;;;;;1999.90;999.90;;;12.10;99.90;;;;;;5080502;28;20113;-64
2022/10/06 02:59:59;;;;;;;1999.90;999.90;;;12.10;99.90;;;;;;5092444;28;20069;-64
2022/10/06 03:02:24;;;;;;;1999.90;999.90;;;12.10;99.90;;;;;;5094786;28;20088;-64
2022/10/06 03:04:50;;;;;;;1999.90;999.90;;;12.00;99.90;;;;;;5103858;27;20107;-64
2022/10/06 03:07:16;;;;;;;1999.90;999.90;;;12.00;99.90;;;;;;5104424;28;20043;-64
2022/10/06 03:09:41;;;;;;;1999.90;999.90;;;11.90;99.90;;;;;;5107968;28;20556;-64
2022/10/06 03:12:07;;;;;;;1999.90;999.90;;;11.80;99.90;;;;;;5089980;28;20035;-64
2022/10/06 03:14:33;;;;;;;1999.90;999.90;;;11.80;99.90;;;;;;5098054;28;20075;-65
2022/10/06 03:16:59;;;;;;;1999.90;999.90;;;11.80;99.90;;;;;;5092683;28;20396;-64
2022/10/06 03:19:24;;;;;;;1999.90;999.90;;;11.70;99.90;;;;;;5091827;28;20400;-65
2022/10/06 03:21:50;;;;;;;1999.90;999.90;;;11.70;99.90;;;;;;5107485;28;20039;-65
2022/10/06 03:24:16;;;;;;;1999.90;999.90;;;11.80;99.90;;;;;;5106195;28;20051;-64
2022/10/06 03:26:44;;;;;;;1999.90;999.90;;;11.80;99.90;;;;;;5108197;28;20043;-65
2022/10/06 03:29:10;;;;;;;1999.90;999.90;;;11.80;99.90;;;;;;5093651;28;20039;-65
2022/10/06 03:31:37;;;;;;;1999.90;999.90;;;11.80;99.90;;;;;;5107540;28;20047;-65
2022/10/06 03:34:03;;;;;;;1999.90;999.90;;;11.70;99.90;;;;;;5098629;28;20840;-65
2022/10/06 03:36:31;;;;;;;1999.90;999.90;;;11.70;99.90;;;;;;5107571;28;20489;-64
2022/10/06 03:38:57;;;;;;;1999.90;999.90;;;11.60;99.90;;;;;;5107385;28;20153;-64
2022/10/06 03:41:28;;;;;;;1999.90;999.90;;;11.50;99.90;;;;;;5091874;28;20126;-65
2022/10/06 03:43:55;;;;;;;1999.90;999.90;;;11.40;99.90;;;;;;5107178;28;20083;-65
2022/10/06 03:46:23;;;;;;;1999.90;999.90;;;11.40;99.90;;;;;;5107665;28;20044;-65
2022/10/06 03:48:51;;;;;;;1999.90;999.90;;;11.40;99.90;;;;;;5080349;28;20039;-65
2022/10/06 03:51:22;;;;;;;1999.90;999.90;;;11.50;99.90;;;;;;5102879;28;20114;-65
2022/10/06 03:53:50;;;;;;;1999.90;999.90;;;11.50;99.90;;;;;;5089415;28;20408;-64
2022/10/06 03:56:16;;;;;;;1999.90;999.90;;;11.50;99.90;;;;;;5108449;28;20043;-64
2022/10/06 03:58:44;;;;;;;1999.90;999.90;;;11.50;99.90;;;;;;5103110;28;20040;-64
2022/10/06 04:01:16;;;;;;;1999.90;999.90;;;11.50;99.90;;;;;;5099818;28;20047;-65
2022/10/06 04:03:41;;;;;;;1999.90;999.90;;;11.50;99.90;;;;;;5106890;28;20113;-65
2022/10/06 04:06:11;;;;;;;1999.90;999.90;;;11.40;99.90;;;;;;5119788;28;20043;-65
2022/10/06 04:08:37;;;;;;;1999.90;999.90;;;11.40;99.90;;;;;;5095201;28;20114;-65
2022/10/06 04:11:11;;;;;;;1999.90;999.90;;;11.30;99.90;;;;;;5125340;28;20047;-65
2022/10/06 04:13:38;;;;;;;1999.90;999.90;;;11.30;99.90;;;;;;5094815;28;20079;-65
2022/10/06 04:16:12;;;;;;;1999.90;999.90;;;11.20;99.90;;;;;;5109935;28;20043;-65
2022/10/06 04:18:39;;;;;;;1999.90;999.90;;;11.10;99.90;;;;;;5111642;28;20047;-64
2022/10/06 04:21:05;;;;;;;1999.90;999.90;;;11.10;99.90;;;;;;5107518;28;20492;-64
2022/10/06 04:23:30;;;;;;;1999.90;999.90;;;11.00;99.90;;;;;;5121813;28;20050;-64
2022/10/06 04:26:01;;;;;;;1999.90;999.90;;;10.90;99.90;;;;;;5082224;28;20044;-65
2022/10/06 04:28:27;;;;;;;1999.90;999.90;;;10.90;99.90;;;;;;5089002;28;20027;-64
2022/10/06 04:31:00;;;;;;;1999.90;999.90;;;10.90;99.90;;;;;;5084844;28;20456;-65
2022/10/06 04:33:27;;;;;;;1999.90;999.90;;;10.80;99.90;;;;;;5075670;28;20054;-64
2022/10/06 04:36:01;;;;;;;1999.90;999.90;;;10.80;99.90;;;;;;5084560;28;20069;-64
2022/10/06 04:38:28;;;;;;;1999.90;999.90;;;10.80;99.90;;;;;;5077112;28;20522;-64
2022/10/06 04:41:02;;;;;;;1999.90;999.90;;;10.80;99.90;;;;;;5091936;28;20048;-65
2022/10/06 04:43:28;;;;;;;1999.90;999.90;;;10.70;99.90;;;;;;5069630;28;20252;-65
2022/10/06 04:45:58;;;;;;;1999.90;999.90;;;10.70;99.90;;;;;;5082311;28;20839;-65
2022/10/06 04:48:28;;;;;;;1999.90;999.90;;;10.70;99.90;;;;;;5102080;28;20097;-65
2022/10/06 04:50:58;;;;;;;1999.90;999.90;;;10.70;99.90;;;;;;5084310;28;20054;-65
2022/10/06 04:53:24;;;;;;;1999.90;999.90;;;10.60;99.90;;;;;;5111025;27;20118;-65
2022/10/06 04:56:10;;;;;;;1999.90;999.90;;;10.60;99.90;;;;;;5103657;27;20113;-64
2022/10/06 04:58:39;;;;;;;1999.90;999.90;;;10.60;99.90;;;;;;5081361;27;20039;-65
2022/10/06 05:01:25;;;;;;;1999.90;999.90;;;10.60;99.90;;;;;;5128188;27;20564;-65
2022/10/06 05:03:53;;;;;;;1999.90;999.90;;;10.60;99.90;;;;;;5097639;28;20114;-64
2022/10/06 05:06:27;;;;;;;1999.90;999.90;;;10.60;99.90;;;;;;5111264;28;20051;-64
2022/10/06 05:08:55;;;;;;;1999.90;999.90;;;10.60;99.90;;;;;;5092717;27;20117;-65
2022/10/06 05:11:22;;;;;;;1999.90;999.90;;;10.60;99.90;;;;;;5099885;28;20569;-65
2022/10/06 05:13:49;;;;;;;1999.90;999.90;;;10.60;99.90;;;;;;5110058;28;20071;-64
2022/10/06 05:16:16;;;;;;;1999.90;999.90;;;10.60;99.90;;;;;;5092475;28;20509;-64
2022/10/06 05:18:43;;;;;;;1999.90;999.90;;;10.60;99.90;;;;;;5109223;27;20035;-64
2022/10/06 05:21:21;;;;;;;1999.90;999.90;;;10.60;99.90;;;;;;5099744;28;20043;-65
2022/10/06 05:23:46;;;;;;;1999.90;999.90;;;10.60;99.90;;;;;;5073254;28;20047;-65
2022/10/06 05:26:16;;;;;;;1999.90;999.90;;;10.70;99.90;;;;;;5091871;28;20031;-65
2022/10/06 05:28:42;;;;;;;1999.90;999.90;;;10.70;99.90;;;;;;5117095;27;20063;-65
2022/10/06 05:31:17;;;;;;;1999.90;999.90;;;10.70;99.90;;;;;;5099325;28;20048;-64
2022/10/06 05:33:43;;;;;;;1999.90;999.90;;;10.70;99.90;;;;;;5092136;28;20044;-64
2022/10/06 05:36:14;;;;;;;1999.90;999.90;;;10.70;99.90;;;;;;5099389;27;20047;-64
2022/10/06 05:38:40;;;;;;;1999.90;999.90;;;10.70;99.90;;;;;;5116444;27;20177;-64
2022/10/06 05:41:14;;;;;;;1999.90;999.90;;;10.80;99.90;;;;;;5091221;28;20122;-64
2022/10/06 05:43:41;;;;;;;1999.90;999.90;;;10.80;99.90;;;;;;5101692;28;20051;-64
2022/10/06 05:46:11;;;;;;;1999.90;999.90;;;10.80;99.90;;;;;;5102700;27;20042;-65
2022/10/06 05:48:36;;;;;;;1999.90;999.90;;;10.80;99.90;;;;;;5110774;27;20382;-65
2022/10/06 05:51:05;;;;;;;1999.90;999.90;;;10.80;99.90;;;;;;5109682;28;20092;-65
2022/10/06 05:53:32;;;;;;;1999.90;999.90;;;10.80;99.90;;;;;;5098331;28;20511;-65
2022/10/06 05:56:05;;;;;;;1999.90;999.90;;;10.90;99.90;;;;;;5110924;27;20048;-65
2022/10/06 05:58:31;;;;;;;1999.90;999.90;;;10.90;99.90;;;;;;5118473;27;20084;-65
2022/10/06 06:01:06;;;;;;;1999.90;999.90;;;11.00;99.90;;;;;;5096370;28;20048;-65
2022/10/06 06:03:31;;;;;;;1999.90;999.90;;;11.10;99.90;;;;;;5109374;27;20056;-64
2022/10/06 06:05:57;;;;;;;1999.90;999.90;;;11.20;99.90;;;;;;5094709;28;20035;-65
2022/10/06 06:08:22;;;;;;;1999.90;999.90;;;11.30;99.90;;;;;;5109597;28;20066;-65
2022/10/06 06:10:48;;;;;;;1999.90;999.90;;;11.30;99.90;;;;;;5050711;28;20416;-65
2022/10/06 06:13:22;;;;;;;1999.90;999.90;;;11.30;99.90;;;;;;5098938;28;20043;-65
2022/10/06 06:15:59;;;;;;;1999.90;999.90;;;11.30;99.90;;;;;;5108693;28;20046;-65
2022/10/06 06:18:26;;;;;;;1999.90;999.90;;;11.30;99.90;;;;;;5108692;28;20118;-65
2022/10/06 06:21:00;;;;;;;1999.90;999.90;;;11.30;99.90;;;;;;5090853;28;20085;-65
2022/10/06 06:23:33;;;;;;;1999.90;999.90;;;11.20;99.90;;;;;;5116163;27;20031;-64
2022/10/06 06:26:01;;;;;;;1999.90;999.90;;;11.20;99.90;;;;;;5108154;27;20065;-65
2022/10/06 06:28:28;;;;;;;1999.90;999.90;;;11.20;99.90;;;;;;5109044;28;20071;-64
2022/10/06 06:31:02;;;;;;;1999.90;999.90;;;11.20;99.90;;;;;;5108654;28;20039;-65
2022/10/06 06:33:29;;;;;;;1999.90;999.90;;;11.30;99.90;;;;;;5090207;28;20070;-65
2022/10/06 06:35:56;;;;;;;1999.90;999.90;;;11.20;99.90;;;;;;5094014;28;20086;-65
2022/10/06 06:38:21;;;;;;;1999.90;999.90;;;11.30;99.90;;;;;;5101642;28;20134;-65
2022/10/06 06:40:47;;;;;;;1999.90;999.90;;;11.40;99.90;;;;;;5109282;28;20131;-65
2022/10/06 06:43:13;;;;;;;1999.90;999.90;;;11.40;99.90;;;;;;5072211;28;20066;-65
2022/10/06 06:45:39;;;;;;;1999.90;999.90;;;11.50;99.90;;;;;;5109303;28;20182;-65
2022/10/06 06:48:04;;;;;;;1999.90;999.90;;;11.60;99.90;;;;;;5108518;28;20027;-65
2022/10/06 06:50:31;;;;;;;1999.90;999.90;;;11.70;99.90;;;;;;5090430;28;20042;-65
2022/10/06 06:52:57;;;;;;;1999.90;999.90;;;11.80;99.90;;;;;;5103948;28;20108;-65
2022/10/06 06:55:22;;;;;;;1999.90;999.90;;;11.90;99.90;;;;;;5103572;28;20046;-65
2022/10/06 06:57:48;;;;;;;1999.90;999.90;;;11.90;99.90;;;;;;5086476;28;20039;-65
2022/10/06 07:00:16;;;;;;;1999.90;999.90;;;12.10;99.90;;;;;;5104058;28;20617;-65
2022/10/06 07:02:41;;;;;;;1999.90;999.90;;;12.10;99.90;;;;;;5073467;28;20039;-65
2022/10/06 07:05:10;;;;;;;1999.90;999.90;;;12.20;99.90;;;;;;5108246;28;20027;-65
2022/10/06 07:07:35;;;;;;;1999.90;999.90;;;12.30;99.90;;;;;;5095276;28;20044;-65
2022/10/06 07:10:01;;;;;;;1999.90;999.90;;;12.40;99.90;;;;;;5108708;28;20040;-65
2022/10/06 07:12:27;;;;;;;1999.90;999.90;;;12.40;99.90;;;;;;5082856;27;20031;-64
2022/10/06 07:25:51;;;;;;;1999.90;999.90;;;12.60;99.90;;;;;;5119240;27;20043;-65
2022/10/06 07:28:17;;;;;;;1999.90;999.90;;;12.80;99.90;;;;;;5081588;28;20036;-64
2022/10/06 07:30:43;;;;;;;1999.90;999.90;;;12.90;99.90;;;;;;5105124;28;20050;-65
2022/10/06 07:33:09;;;;;;;1999.90;999.90;;;13.00;99.90;;;;;;5103384;28;20069;-65
2022/10/06 07:35:37;;;;;;;1999.90;999.90;;;13.00;99.90;;;;;;5107960;28;20477;-64
2022/10/06 07:38:06;;;;;;;1999.90;999.90;;;13.00;99.90;;;;;;5107871;28;20126;-65
2022/10/06 07:40:33;;;;;;;1999.90;999.90;;;13.00;99.90;;;;;;5085201;28;20147;-65
2022/10/06 07:42:59;;;;;;;1999.90;999.90;;;13.10;99.90;;;;;;5105327;28;20074;-64
2022/10/06 07:45:43;;;;;;;1999.90;999.90;;;13.10;99.90;;;;;;5107762;28;20508;-65
2022/10/06 07:48:16;;;;;;;1999.90;999.90;;;13.10;99.90;;;;;;5089195;28;20047;-64
2022/10/06 07:50:44;;;;;;;1999.90;999.90;;;13.20;99.90;;;;;;5098089;28;20051;-65
2022/10/06 07:53:10;;;;;;;1999.90;999.90;;;13.30;99.90;;;;;;5099584;28;20039;-64
2022/10/06 07:55:38;;;;;;;1999.90;999.90;;;13.30;99.90;;;;;;5089101;28;20423;-65
2022/10/06 07:58:09;;;;;;;1999.90;999.90;;;13.40;99.90;;;;;;5109471;28;20031;-65
2022/10/06 08:00:35;;;;;;;1999.90;999.90;;;13.50;99.90;;;;;;5097277;28;20048;-65
2022/10/06 08:03:00;;;;;;;1999.90;999.90;;;13.60;99.90;;;;;;5090830;28;20043;-65
2022/10/06 08:05:26;;;;;;;1999.90;999.90;;;13.60;99.90;;;;;;5090090;28;20039;-65
2022/10/06 08:07:52;;;;;;;1999.90;999.90;;;13.70;99.90;;;;;;5108230;28;20505;-65
2022/10/06 08:10:19;;;;;;;1999.90;999.90;;;13.80;99.90;;;;;;5101210;28;20086;-65
2022/10/06 08:12:45;;;;;;;1999.90;999.90;;;13.80;99.90;;;;;;5106970;28;20040;-65
2022/10/06 08:15:12;;;;;;;1999.90;999.90;;;13.90;99.90;;;;;;5108850;28;20109;-65
2022/10/06 08:17:38;;;;;;;1999.90;999.90;;;14.10;99.90;;;;;;5081335;28;20047;-65
2022/10/06 08:20:07;;;;;;;1999.90;999.90;;;14.10;99.90;;;;;;5102167;28;20108;-64
2022/10/06 08:22:33;;;;;;;1999.90;999.90;;;14.20;99.90;;;;;;5108958;28;20035;-65
2022/10/06 08:24:58;;;;;;;1999.90;999.90;;;14.40;99.90;;;;;;5102084;28;20513;-65
2022/10/06 08:27:27;;;;;;;1999.90;999.90;;;14.50;99.90;;;;;;5077342;28;20128;-65
2022/10/06 08:29:53;;;;;;;1999.90;999.90;;;14.60;99.90;;;;;;5094243;28;20046;-65
2022/10/06 08:32:20;;;;;;;1999.90;999.90;;;15.20;99.90;;;;;;5099096;27;20023;-65
2022/10/06 08:34:46;;;;;;;1999.90;999.90;;;16.00;99.90;;;;;;5107514;27;20051;-65
2022/10/06 08:37:12;;;;;;;1999.90;999.90;;;16.60;99.90;;;;;;5111767;27;20040;-65
2022/10/06 08:39:37;;;;;;;1999.90;999.90;;;17.30;99.90;;;;;;5084651;28;20463;-65
2022/10/06 08:42:03;;;;;;;1999.90;999.90;;;17.70;99.90;;;;;;5111334;28;20089;-65
2022/10/06 08:44:39;;;;;;;1999.90;999.90;;;18.00;99.90;;;;;;5117546;27;20055;-65
2022/10/06 08:47:18;;;;;;;1999.90;999.90;;;18.40;99.90;;;;;;5110987;28;20180;-65
2022/10/06 08:49:46;;;;;;;1999.90;999.90;;;18.40;99.90;;;;;;5106506;27;20042;-65
2022/10/06 08:52:35;;;;;;;1999.90;999.90;;;18.70;99.90;;;;;;5106124;28;20057;-65
2022/10/06 08:55:06;;;;;;;1999.90;999.90;;;18.80;99.90;;;;;;5091031;28;20052;-65
2022/10/06 08:57:37;;;;;;;1999.90;999.90;;;19.00;99.90;;;;;;5073745;27;20039;-65
2022/10/06 09:00:12;;;;;;;1999.90;999.90;;;19.20;99.90;;;;;;5097818;28;20051;-65
2022/10/06 09:02:44;;;;;;;1999.90;999.90;;;19.20;99.90;;;;;;5106120;27;20039;-65
2022/10/06 09:05:13;;;;;;;1999.90;999.90;;;19.00;99.90;;;;;;5117800;27;20520;-65
2022/10/06 09:07:47;;;;;;;1999.90;999.90;;;18.70;99.90;;;;;;5106334;28;20040;-64
2022/10/06 09:10:48;;;;;;;1999.90;999.90;;;18.50;99.90;;;;;;5112779;27;20446;-65
2022/10/06 09:13:37;;;;;;;1999.90;999.90;;;18.60;99.90;;;;;;5006804;28;20049;-65
2022/10/06 09:16:07;;;;;;;1999.90;999.90;;;18.70;99.90;;;;;;5090642;28;20059;-65
2022/10/06 09:18:42;;;;;;;1999.90;999.90;;;18.90;99.90;;;;;;5120324;27;20567;-65
2022/10/06 09:21:18;;;;;;;1999.90;999.90;;;18.70;99.90;;;;;;5110306;28;20458;-65
2022/10/06 09:23:52;;;;;;;1999.90;999.90;;;18.60;99.90;;;;;;5079237;28;20114;-65
2022/10/06 09:26:30;;;;;;;1999.90;999.90;;;18.60;99.90;;;;;;5101992;28;20085;-65
2022/10/06 09:28:57;;;;;;;1999.90;999.90;;;18.50;99.90;;;;;;5055415;28;20519;-65
2022/10/06 09:31:24;;;;;;;1999.90;999.90;;;18.40;99.90;;;;;;5088784;27;20034;-65
2022/10/06 09:33:58;;;;;;;1999.90;999.90;;;18.40;99.90;;;;;;5082501;28;20048;-65
2022/10/06 09:36:24;;;;;;;1999.90;999.90;;;18.60;99.90;;;;;;5105755;28;20659;-65
2022/10/06 09:38:56;;;;;;;1999.90;999.90;;;18.60;99.90;;;;;;5110017;28;20484;-65
2022/10/06 09:41:38;;;;;;;1999.90;999.90;;;18.50;99.90;;;;;;5077530;27;20043;-65
2022/10/06 09:44:20;;;;;;;1999.90;999.90;;;18.50;99.90;;;;;;5083245;28;20059;-65
2022/10/06 09:46:45;;;;;;;1999.90;999.90;;;18.40;99.90;;;;;;5107774;28;20439;-65
2022/10/06 09:49:25;;;;;;;1999.90;999.90;;;18.30;99.90;;;;;;5100641;28;20100;-65
2022/10/06 09:52:11;;;;;;;1999.90;999.90;;;18.30;99.90;;;;;;5107414;28;20115;-65
2022/10/06 09:54:40;;;;;;;1999.90;999.90;;;18.40;99.90;;;;;;5075093;28;20102;-65
2022/10/06 09:57:15;;;;;;;1999.90;999.90;;;18.30;99.90;;;;;;5112114;27;20562;-66
2022/10/06 09:59:43;;;;;;;1999.90;999.90;;;18.20;99.90;;;;;;5110385;27;20054;-65
2022/10/06 10:02:31;;;;;;;1999.90;999.90;;;18.20;99.90;;;;;;5081450;28;20047;-65
2022/10/06 10:04:57;;;;;;;1999.90;999.90;;;18.30;99.90;;;;;;5099977;28;20043;-65
2022/10/06 10:07:24;;;;;;;1999.90;999.90;;;18.20;99.90;;;;;;5104317;28;20050;-65
2022/10/06 10:09:51;;;;;;;1999.90;999.90;;;18.20;99.90;;;;;;5109734;28;20047;-65
2022/10/06 10:12:23;;;;;;;1999.90;999.90;;;18.20;99.90;;;;;;5088863;28;20073;-66
2022/10/06 10:14:49;;;;;;;1999.90;999.90;;;18.20;99.90;;;;;;5105291;28;20038;-65
2022/10/06 10:17:39;;;;;;;1999.90;999.90;;;18.00;99.90;;;;;;5101428;28;20039;-65
2022/10/06 10:20:39;;;;;;;1999.90;999.90;;;17.80;99.90;;;;;;5112664;27;20058;-65
2022/10/06 10:23:20;;;;;;;1999.90;999.90;;;17.60;99.90;;;;;;5038493;28;20077;-65
2022/10/06 10:26:00;;;;;;;1999.90;999.90;;;17.50;99.90;;;;;;5038246;28;20045;-65
2022/10/06 10:28:31;;;;;;;1999.90;999.90;;;17.40;99.90;;;;;;5030161;28;20045;-65
2022/10/06 10:31:17;;;;;;;1999.90;999.90;;;17.20;99.90;;;;;;5030101;28;20607;-65
2022/10/06 10:34:08;;;;;;;1999.90;999.90;;;17.20;99.90;;;;;;5025652;28;20431;-65
2022/10/06 10:36:38;;;;;;;1999.90;999.90;;;17.30;99.90;;;;;;5012569;28;20565;-64
2022/10/06 10:39:10;;;;;;;1999.90;999.90;;;17.40;99.90;;;;;;5020755;28;20060;-65
2022/10/06 10:41:53;;;;;;;1999.90;999.90;;;17.40;99.50;;;;;;5022360;28;20041;-65
2022/10/06 10:44:33;;;;;;;1999.90;999.90;;;17.50;99.90;;;;;;5008561;28;20054;-65
2022/10/06 10:47:20;;;;;;;1999.90;999.90;;;17.50;99.80;;;;;;5007840;28;20132;-64
2022/10/06 10:49:57;;;;;;;1999.90;999.90;;;17.50;99.70;;;;;;5008615;28;20053;-65
2022/10/06 10:52:28;;;;;;;1999.90;999.90;;;17.50;99.90;;;;;;5042011;28;20631;-65
2022/10/06 10:55:02;;;;;;;1999.90;999.90;;;17.60;99.90;;;;;;5025100;28;20050;-65
2022/10/06 10:57:36;;;;;;;1999.90;999.90;;;17.70;99.90;;;;;;5024958;28;20057;-65
2022/10/06 11:00:11;;;;;;;1999.90;999.90;;;17.90;99.90;;;;;;5126221;27;20035;-65
2022/10/06 11:02:39;;;;;;;1999.90;999.90;;;18.00;99.50;;;;;;5099825;28;20498;-65
2022/10/06 11:05:15;;;;;;;1999.90;999.90;;;17.90;99.10;;;;;;5122291;27;20054;-65
2022/10/06 11:07:41;;;;;;;1999.90;999.90;;;17.90;98.80;;;;;;5100499;27;20408;-65
2022/10/06 11:10:29;;;;;;;1999.90;999.90;;;17.80;99.00;;;;;;5126293;27;20047;-65
2022/10/06 11:13:00;;;;;;;1999.90;999.90;;;17.90;99.90;;;;;;5102018;27;20048;-64
2022/10/06 11:15:54;;;;;;;1999.90;999.90;;;18.10;98.60;;;;;;5096149;27;20043;-65
2022/10/06 11:19:04;;;;;;;1999.90;999.90;;;18.10;99.00;;;;;;5107729;28;20134;-65
2022/10/06 11:22:02;;;;;;;1999.90;999.90;;;18.30;98.70;;;;;;5081900;28;20470;-65
2022/10/06 11:24:49;;;;;;;1999.90;999.90;;;18.30;98.80;;;;;;5096629;28;20048;-65
2022/10/06 11:27:34;;;;;;;1999.90;999.90;;;18.40;98.20;;;;;;5088840;28;20035;-65
2022/10/06 11:30:23;;;;;;;1999.90;999.90;;;18.40;96.60;;;;;;5044264;28;20116;-65
2022/10/06 11:33:33;;;;;;;1999.90;999.90;;;18.40;95.90;;;;;;5088766;28;20097;-65
2022/10/06 11:36:01;;;;;;;1999.90;999.90;;;18.30;95.70;;;;;;5026802;28;20068;-65
2022/10/06 11:38:32;;;;;;;1999.90;999.90;;;18.30;96.60;;;;;;5091527;28;20051;-65
2022/10/06 11:41:20;;;;;;;1999.90;999.90;;;18.50;96.70;;;;;;5107306;28;20443;-65
2022/10/06 11:43:59;;;;;;;1999.90;999.90;;;18.60;97.10;;;;;;5108090;28;20047;-65
2022/10/06 11:46:37;;;;;;;1999.90;999.90;;;18.70;96.30;;;;;;5107405;28;20382;-65
2022/10/06 11:49:27;;;;;;;1999.90;999.90;;;18.80;96.40;;;;;;5086347;28;20451;-65
2022/10/06 11:51:53;;;;;;;1999.90;999.90;;;18.70;93.50;;;;;;5058528;28;20058;-65
2022/10/06 11:54:38;;;;;;;1999.90;999.90;;;18.40;94.20;;;;;;5121354;28;20039;-65
2022/10/06 11:57:26;;;;;;;1999.90;999.90;;;18.10;94.00;;;;;;5088602;28;20541;-65
2022/10/06 11:59:54;;;;;;;1999.90;999.90;;;17.90;94.40;;;;;;5109527;27;20465;-65
2022/10/06 12:02:31;;;;;;;1999.90;999.90;;;17.80;95.30;;;;;;5124450;27;20101;-65
2022/10/06 12:05:09;;;;;;;1999.90;999.90;;;17.90;95.80;;;;;;5110899;28;20575;-64
2022/10/06 12:07:53;;;;;;;1999.90;999.90;;;17.90;95.40;;;;;;5093808;28;20044;-65
2022/10/06 12:10:27;;;;;;;1999.90;999.90;;;17.90;95.70;;;;;;5119404;27;20043;-64
2022/10/06 12:13:15;;;;;;;1999.90;999.90;;;18.00;95.70;;;;;;5112009;28;20044;-65
2022/10/06 12:15:55;;;;;;;1999.90;999.90;;;18.00;96.30;;;;;;5079764;28;20091;-65
2022/10/06 12:18:45;;;;;;;1999.90;999.90;;;18.10;96.10;;;;;;5092697;27;20082;-65
2022/10/06 12:21:33;;;;;;;1999.90;999.90;;;18.20;96.20;;;;;;5099139;28;20051;-65
2022/10/06 12:24:23;;;;;;;1999.90;999.90;;;18.20;96.50;;;;;;5116217;27;20047;-65
2022/10/06 12:27:10;;;;;;;1999.90;999.90;;;18.30;95.90;;;;;;5098452;28;20485;-65